Time;durP1;ratioP1;P1;durP2;ratioP2;P2;SDS_P1;SDS_P2;PMS_P1;PMS_P2;Temp;Humidity;BMP_temperature;BMP_pressure;BME280_temperature;BME280_humidity;BME280_pressure;Samples;Min_cycle;Max_cycle;Signal;HPM_P1;HPM_P2
2022/01/15 00:00:27;;;;;;;5.67;5.17;;;18.10;38.20;;;;;;5052803;28;20913;-74
2022/01/15 00:02:54;;;;;;;6.00;5.43;;;18.10;38.20;;;;;;5025704;28;20534;-75
2022/01/15 00:05:20;;;;;;;5.30;4.90;;;18.10;38.20;;;;;;5020556;28;20908;-74
2022/01/15 00:07:48;;;;;;;6.20;5.60;;;18.10;38.20;;;;;;5022416;28;20423;-74
2022/01/15 00:10:16;;;;;;;6.03;5.50;;;18.10;38.20;;;;;;5021936;28;20409;-75
2022/01/15 00:12:42;;;;;;;6.30;5.80;;;18.10;38.20;;;;;;5023741;28;20520;-75
2022/01/15 00:15:13;;;;;;;5.90;5.50;;;18.10;38.20;;;;;;5024809;28;20431;-75
2022/01/15 00:17:52;;;;;;;5.87;5.37;;;18.10;38.20;;;;;;5021768;28;20457;-74
2022/01/15 00:20:19;;;;;;;5.63;5.13;;;18.10;38.20;;;;;;5020808;28;20420;-75
2022/01/15 00:22:50;;;;;;;6.13;5.53;;;18.10;38.20;;;;;;5021075;28;20776;-75
2022/01/15 00:25:17;;;;;;;6.00;5.50;;;18.00;38.10;;;;;;5019958;28;20420;-75
2022/01/15 00:27:43;;;;;;;5.33;4.93;;;18.10;38.20;;;;;;5020021;28;20461;-75
2022/01/15 00:30:10;;;;;;;5.10;4.70;;;18.10;38.20;;;;;;5023919;28;20910;-72
2022/01/15 00:32:35;;;;;;;5.83;5.27;;;18.10;38.20;;;;;;5016843;28;20436;-75
2022/01/15 00:35:02;;;;;;;6.00;5.40;;;18.00;38.10;;;;;;5018233;28;20998;-75
2022/01/15 00:37:31;;;;;;;5.77;5.37;;;18.10;38.20;;;;;;5020149;28;20215;-75
2022/01/15 00:40:00;;;;;;;6.07;5.53;;;18.00;38.10;;;;;;5023725;28;20932;-72
2022/01/15 00:42:27;;;;;;;6.03;5.53;;;18.00;38.10;;;;;;5021147;28;20821;-75
2022/01/15 00:44:55;;;;;;;4.73;4.43;;;18.00;38.10;;;;;;5024601;28;20446;-75
2022/01/15 00:47:20;;;;;;;5.97;5.50;;;18.00;38.10;;;;;;5017293;28;20426;-75
2022/01/15 00:49:46;;;;;;;4.63;4.33;;;18.00;38.10;;;;;;5021122;28;20412;-76
2022/01/15 00:52:12;;;;;;;5.07;4.77;;;18.00;38.10;;;;;;5021624;28;20291;-75
2022/01/15 00:54:37;;;;;;;4.53;4.23;;;18.00;38.10;;;;;;5022800;28;20680;-75
2022/01/15 00:57:03;;;;;;;5.97;5.47;;;18.00;38.20;;;;;;5023029;28;20262;-76
2022/01/15 00:59:29;;;;;;;5.77;5.30;;;18.00;38.10;;;;;;5019225;28;20232;-75
2022/01/15 01:01:54;;;;;;;5.43;5.03;;;18.00;38.20;;;;;;5016072;28;20238;-74
2022/01/15 01:04:21;;;;;;;5.63;4.73;;;18.00;38.10;;;;;;5019221;28;20219;-76
2022/01/15 01:06:47;;;;;;;6.70;5.83;;;18.00;38.10;;;;;;5019309;28;20619;-80
2022/01/15 01:09:12;;;;;;;5.13;4.70;;;18.00;38.10;;;;;;5055000;28;20426;-80
2022/01/15 01:11:51;;;;;;;4.90;4.60;;;18.00;38.20;;;;;;5021264;28;20223;-80
2022/01/15 01:20:23;;;;;;;4.97;4.67;;;18.00;38.20;;;;;;5037080;28;20954;-77
2022/01/15 01:22:55;;;;;;;5.30;5.00;;;18.00;38.10;;;;;;5021535;28;20444;-77
2022/01/15 01:25:23;;;;;;;4.53;4.20;;;18.00;38.10;;;;;;5020421;28;20809;-77
2022/01/15 01:27:52;;;;;;;5.30;4.90;;;18.00;38.20;;;;;;5052330;28;20843;-76
2022/01/15 01:32:50;;;;;;;4.43;4.13;;;18.00;38.20;;;;;;5022437;28;20441;-76
2022/01/15 01:35:30;;;;;;;4.90;4.50;;;18.00;38.90;;;;;;5022447;28;20636;-75
2022/01/15 01:38:00;;;;;;;4.93;4.60;;;18.00;38.20;;;;;;5017927;28;20466;-75
2022/01/15 01:40:37;;;;;;;4.70;4.33;;;18.00;38.10;;;;;;5021312;28;20434;-76
2022/01/15 01:43:28;;;;;;;4.93;4.63;;;18.00;38.10;;;;;;5020765;28;20501;-76
2022/01/15 01:45:59;;;;;;;4.00;3.80;;;18.00;38.10;;;;;;5021709;28;20543;-76
2022/01/15 01:48:25;;;;;;;5.00;4.60;;;18.00;38.10;;;;;;5024010;28;20416;-76
2022/01/15 01:50:50;;;;;;;4.43;4.13;;;18.00;38.20;;;;;;5018578;28;20494;-76
2022/01/15 01:53:16;;;;;;;6.03;4.90;;;18.00;38.10;;;;;;5020453;28;20234;-75
2022/01/15 01:55:42;;;;;;;4.60;4.20;;;18.00;38.10;;;;;;5021275;28;20260;-75
2022/01/15 01:58:07;;;;;;;5.40;4.90;;;18.00;38.10;;;;;;5018410;28;20570;-74
2022/01/15 02:00:33;;;;;;;4.80;4.40;;;18.00;38.10;;;;;;5019961;28;20216;-75
2022/01/15 02:03:00;;;;;;;5.00;4.60;;;18.00;38.10;;;;;;5016836;28;20223;-73
2022/01/15 02:05:27;;;;;;;5.40;4.90;;;18.10;38.20;;;;;;5017178;28;20282;-76
2022/01/15 02:07:52;;;;;;;4.03;3.73;;;18.00;38.00;;;;;;5017627;28;20420;-75
2022/01/15 02:10:21;;;;;;;4.33;4.13;;;18.10;38.20;;;;;;5021380;28;20444;-75
2022/01/15 02:12:48;;;;;;;4.40;4.10;;;18.00;38.10;;;;;;5021653;28;20223;-73
2022/01/15 02:15:15;;;;;;;4.43;4.13;;;18.00;38.00;;;;;;5020753;28;20468;-75
2022/01/15 02:17:43;;;;;;;4.23;3.93;;;18.00;38.00;;;;;;5022945;28;20460;-73
2022/01/15 02:25:52;;;;;;;4.60;4.23;;;18.00;38.00;;;;;;5022526;28;20499;-73
2022/01/15 02:28:24;;;;;;;4.27;3.97;;;18.00;38.10;;;;;;5022581;28;20469;-75
2022/01/15 02:30:55;;;;;;;4.00;3.80;;;18.00;38.10;;;;;;5020305;28;20435;-75
2022/01/15 02:33:21;;;;;;;3.67;3.40;;;18.00;38.00;;;;;;5023294;28;20865;-75
2022/01/15 02:35:47;;;;;;;3.83;3.63;;;18.00;38.10;;;;;;5023257;28;20552;-75
2022/01/15 02:38:12;;;;;;;4.43;4.10;;;18.00;38.10;;;;;;5018411;28;20494;-75
2022/01/15 02:40:39;;;;;;;3.80;3.60;;;18.00;38.80;;;;;;5018180;28;20223;-75
2022/01/15 02:43:11;;;;;;;3.77;3.50;;;18.00;38.00;;;;;;5021455;28;20235;-75
2022/01/15 02:45:41;;;;;;;4.33;4.03;;;18.00;38.10;;;;;;5016543;28;20473;-75
2022/01/15 02:48:18;;;;;;;4.10;3.90;;;18.00;38.00;;;;;;5026989;28;21020;-75
2022/01/15 02:50:45;;;;;;;3.63;3.33;;;18.00;38.00;;;;;;5022477;28;20477;-75
2022/01/15 02:53:13;;;;;;;3.90;3.60;;;18.00;38.00;;;;;;5020594;28;20478;-75
2022/01/15 02:55:42;;;;;;;4.87;4.47;;;18.00;38.00;;;;;;5020999;28;20501;-73
2022/01/15 02:58:09;;;;;;;3.97;3.70;;;18.00;38.00;;;;;;5018957;28;20411;-75
2022/01/15 03:00:36;;;;;;;3.80;3.40;;;18.00;38.00;;;;;;5017845;28;20497;-75
2022/01/15 03:03:01;;;;;;;3.83;3.63;;;18.00;38.00;;;;;;5018701;28;20434;-75
2022/01/15 03:05:27;;;;;;;4.20;3.80;;;18.00;38.10;;;;;;5021593;28;20507;-76
2022/01/15 03:07:52;;;;;;;4.07;3.77;;;18.00;38.80;;;;;;5022503;28;20223;-75
2022/01/15 03:10:18;;;;;;;3.70;3.50;;;18.00;38.10;;;;;;5017332;28;20688;-74
2022/01/15 03:12:44;;;;;;;3.87;3.57;;;18.00;38.10;;;;;;5017875;28;20215;-76
2022/01/15 03:15:13;;;;;;;3.53;3.33;;;18.00;38.80;;;;;;5016846;28;20259;-73
2022/01/15 03:17:39;;;;;;;3.90;3.60;;;18.00;38.10;;;;;;5019337;28;20680;-75
2022/01/15 03:20:06;;;;;;;4.60;4.30;;;18.00;38.10;;;;;;5019454;28;20431;-75
2022/01/15 03:22:31;;;;;;;3.37;3.17;;;18.00;38.10;;;;;;5019017;28;20230;-75
2022/01/15 03:24:57;;;;;;;3.93;3.73;;;18.00;38.10;;;;;;5016781;28;20449;-75
2022/01/15 03:27:24;;;;;;;3.73;3.50;;;18.00;38.10;;;;;;5021686;28;20235;-75
2022/01/15 03:29:52;;;;;;;3.87;3.30;;;18.00;38.10;;;;;;5020050;28;20216;-75
2022/01/15 03:32:19;;;;;;;4.07;3.67;;;18.00;38.10;;;;;;5021070;28;20448;-75
2022/01/15 03:34:46;;;;;;;3.67;3.47;;;18.00;38.10;;;;;;5019837;28;20928;-75
2022/01/15 03:37:12;;;;;;;3.83;3.50;;;18.00;38.10;;;;;;5019140;28;20460;-74
2022/01/15 03:39:38;;;;;;;3.87;3.63;;;18.00;38.00;;;;;;5020100;28;20795;-74
2022/01/15 03:42:11;;;;;;;3.30;3.10;;;18.00;38.10;;;;;;5019861;28;20222;-75
2022/01/15 03:44:48;;;;;;;3.37;3.17;;;18.00;38.10;;;;;;5021119;28;20461;-76
2022/01/15 03:47:14;;;;;;;3.90;3.60;;;18.00;38.10;;;;;;5019026;28;20444;-76
2022/01/15 03:49:41;;;;;;;3.20;2.90;;;18.00;38.10;;;;;;5021387;28;20443;-80
2022/01/15 03:52:08;;;;;;;3.70;3.40;;;18.00;38.10;;;;;;5024421;28;20402;-80
2022/01/15 03:54:34;;;;;;;3.17;2.97;;;18.00;38.10;;;;;;5023524;28;20440;-77
2022/01/15 03:57:01;;;;;;;3.90;3.60;;;18.00;38.10;;;;;;5022763;28;20423;-77
2022/01/15 03:59:27;;;;;;;4.10;3.67;;;18.00;38.00;;;;;;5020404;28;20432;-77
2022/01/15 04:01:53;;;;;;;3.87;3.47;;;18.00;38.00;;;;;;5018958;28;20520;-76
2022/01/15 04:04:19;;;;;;;3.90;3.60;;;18.00;38.00;;;;;;5018421;28;20543;-76
2022/01/15 04:06:45;;;;;;;3.97;3.67;;;18.00;38.20;;;;;;5019498;28;20238;-77
2022/01/15 04:09:12;;;;;;;3.30;3.10;;;18.00;38.10;;;;;;5024469;28;20420;-75
2022/01/15 04:11:39;;;;;;;3.40;3.20;;;18.00;38.10;;;;;;5024420;28;20311;-76
2022/01/15 04:14:05;;;;;;;3.60;3.40;;;18.00;38.10;;;;;;5018889;28;20522;-75
2022/01/15 04:16:31;;;;;;;3.73;3.53;;;18.00;38.00;;;;;;5021779;28;20555;-76
2022/01/15 04:19:00;;;;;;;3.83;3.60;;;18.00;38.10;;;;;;5023650;28;20458;-76
2022/01/15 04:21:27;;;;;;;3.87;3.57;;;18.00;38.10;;;;;;5017311;28;20236;-76
2022/01/15 04:23:53;;;;;;;3.37;3.17;;;18.00;38.10;;;;;;5020967;28;20477;-75
2022/01/15 04:26:24;;;;;;;3.50;3.20;;;18.00;38.00;;;;;;5024846;28;20430;-76
2022/01/15 04:28:51;;;;;;;3.73;3.53;;;18.00;38.00;;;;;;5019854;28;20824;-77
2022/01/15 04:31:17;;;;;;;3.20;2.93;;;18.00;38.00;;;;;;5037651;28;20787;-75
2022/01/15 04:33:43;;;;;;;3.37;3.17;;;18.00;38.00;;;;;;5019908;28;20441;-82
2022/01/15 04:36:09;;;;;;;3.60;3.40;;;18.00;38.00;;;;;;5019834;28;20426;-78
2022/01/15 04:38:38;;;;;;;3.27;3.07;;;18.00;38.00;;;;;;5018901;28;20436;-72
2022/01/15 04:41:04;;;;;;;4.00;3.60;;;18.00;38.00;;;;;;5021966;28;20427;-74
2022/01/15 04:43:30;;;;;;;3.70;3.40;;;18.00;38.00;;;;;;5020152;28;20443;-70
2022/01/15 04:45:56;;;;;;;3.63;3.37;;;18.00;38.00;;;;;;5024100;28;21010;-76
2022/01/15 04:48:21;;;;;;;3.40;3.20;;;18.00;38.00;;;;;;5021576;28;20737;-74
2022/01/15 04:50:47;;;;;;;3.73;3.53;;;18.00;38.00;;;;;;5017295;28;20311;-75
2022/01/15 04:53:13;;;;;;;3.17;2.97;;;18.00;38.00;;;;;;5019443;28;20590;-74
2022/01/15 04:55:39;;;;;;;3.90;3.70;;;18.00;38.00;;;;;;5020226;28;20739;-75
2022/01/15 04:58:06;;;;;;;4.03;3.60;;;18.00;38.00;;;;;;5019347;28;20293;-75
2022/01/15 05:00:32;;;;;;;3.70;3.50;;;18.00;38.00;;;;;;5019611;28;20436;-75
2022/01/15 05:02:58;;;;;;;3.77;3.53;;;18.00;38.00;;;;;;5021380;28;20474;-76
2022/01/15 05:05:25;;;;;;;3.47;3.23;;;18.00;38.00;;;;;;5020984;28;21294;-76
2022/01/15 05:07:53;;;;;;;3.87;3.57;;;18.00;37.90;;;;;;5023362;28;20215;-75
2022/01/15 05:10:23;;;;;;;4.07;3.77;;;18.00;38.00;;;;;;5021283;28;20839;-74
2022/01/15 05:12:49;;;;;;;3.37;3.17;;;18.00;38.00;;;;;;5019702;28;20532;-75
2022/01/15 05:15:17;;;;;;;3.70;3.40;;;18.00;38.00;;;;;;5022637;28;20456;-74
2022/01/15 05:17:43;;;;;;;2.83;2.63;;;18.00;38.00;;;;;;5026224;28;20473;-74
2022/01/15 05:20:11;;;;;;;4.07;3.77;;;18.00;37.90;;;;;;5019843;28;20510;-74
2022/01/15 05:22:37;;;;;;;3.20;3.00;;;18.00;37.90;;;;;;5020995;28;20914;-74
2022/01/15 05:25:07;;;;;;;3.70;3.40;;;18.00;37.80;;;;;;5018155;28;20512;-75
2022/01/15 05:27:34;;;;;;;3.50;3.23;;;18.00;37.80;;;;;;5021376;28;20247;-76
2022/01/15 05:29:59;;;;;;;3.57;3.27;;;18.00;37.80;;;;;;5017944;28;20426;-76
2022/01/15 05:32:25;;;;;;;3.90;3.50;;;18.00;37.90;;;;;;5019519;28;20429;-76
2022/01/15 05:34:50;;;;;;;3.93;3.63;;;18.00;37.80;;;;;;5026145;28;20238;-76
2022/01/15 05:37:16;;;;;;;3.73;3.50;;;18.00;37.90;;;;;;5019957;28;20250;-74
2022/01/15 05:39:42;;;;;;;3.57;3.33;;;18.00;37.80;;;;;;5016434;28;20219;-76
2022/01/15 05:42:08;;;;;;;4.30;3.37;;;18.00;37.70;;;;;;5019890;28;20244;-74
2022/01/15 05:44:34;;;;;;;3.77;3.47;;;18.00;37.70;;;;;;5022728;28;20677;-76
2022/01/15 05:47:00;;;;;;;3.73;3.53;;;18.00;37.70;;;;;;5021687;28;20444;-76
2022/01/15 05:49:26;;;;;;;3.07;2.87;;;18.00;37.70;;;;;;5021228;28;20805;-76
2022/01/15 05:51:52;;;;;;;3.50;3.30;;;18.00;37.60;;;;;;5015940;28;20454;-74
2022/01/15 05:54:18;;;;;;;3.30;3.10;;;18.00;37.60;;;;;;5015313;28;20274;-75
2022/01/15 05:56:43;;;;;;;3.87;3.57;;;18.00;37.60;;;;;;5020913;28;20432;-75
2022/01/15 05:59:09;;;;;;;3.00;2.80;;;18.10;37.60;;;;;;5019231;28;20234;-75
2022/01/15 06:01:35;;;;;;;3.20;3.00;;;18.00;37.50;;;;;;5020903;28;20668;-74
2022/01/15 06:04:01;;;;;;;3.47;3.27;;;18.00;37.50;;;;;;5018941;28;20271;-75
2022/01/15 06:06:27;;;;;;;3.80;3.53;;;18.10;37.60;;;;;;5020806;28;20485;-74
2022/01/15 06:08:52;;;;;;;3.83;3.53;;;18.10;37.60;;;;;;5016156;28;20657;-74
2022/01/15 06:11:18;;;;;;;3.77;3.47;;;18.00;37.50;;;;;;5015343;28;20211;-73
2022/01/15 06:13:45;;;;;;;3.23;3.03;;;18.10;37.60;;;;;;5020413;28;20250;-74
2022/01/15 06:16:11;;;;;;;4.03;3.73;;;18.10;37.60;;;;;;5021320;28;20310;-74
2022/01/15 06:18:37;;;;;;;3.40;3.10;;;18.10;37.60;;;;;;5020174;28;20515;-82
2022/01/15 06:21:02;;;;;;;3.30;3.10;;;18.10;37.60;;;;;;5019149;28;20412;-81
2022/01/15 06:23:28;;;;;;;4.47;3.33;;;18.10;37.60;;;;;;5052665;28;20306;-78
2022/01/15 06:25:54;;;;;;;3.50;3.20;;;18.10;37.60;;;;;;5018383;28;20255;-77
2022/01/15 06:28:20;;;;;;;3.43;3.20;;;18.10;37.60;;;;;;5019167;28;20238;-76
2022/01/15 06:30:46;;;;;;;3.37;3.17;;;18.10;37.60;;;;;;5022429;28;20423;-74
2022/01/15 06:33:11;;;;;;;3.20;3.00;;;18.10;37.60;;;;;;5018834;28;20284;-76
2022/01/15 06:35:37;;;;;;;3.43;3.23;;;18.10;37.60;;;;;;5021557;28;20660;-72
2022/01/15 06:38:02;;;;;;;3.07;2.77;;;18.10;37.60;;;;;;5020086;28;20220;-75
2022/01/15 06:40:28;;;;;;;3.43;3.23;;;18.10;37.60;;;;;;5020284;28;20241;-74
2022/01/15 06:42:54;;;;;;;3.47;3.27;;;18.10;37.60;;;;;;5017782;28;20227;-77
2022/01/15 06:45:19;;;;;;;3.97;3.67;;;18.10;37.60;;;;;;5023203;28;20219;-79
2022/01/15 06:47:45;;;;;;;3.63;3.43;;;18.10;37.60;;;;;;5020550;28;20223;-78
2022/01/15 06:50:11;;;;;;;3.43;3.13;;;18.10;37.60;;;;;;5018160;28;20223;-78
2022/01/15 06:52:38;;;;;;;3.00;2.80;;;18.10;37.60;;;;;;5015040;28;20270;-78
2022/01/15 06:55:06;;;;;;;3.50;3.30;;;18.10;37.60;;;;;;5024493;28;20235;-78
2022/01/15 06:57:32;;;;;;;3.57;3.37;;;18.10;37.60;;;;;;5017514;28;20435;-77
2022/01/15 06:59:57;;;;;;;3.20;3.00;;;18.10;37.60;;;;;;5023173;28;20431;-78
2022/01/15 07:02:23;;;;;;;3.90;3.60;;;18.10;37.60;;;;;;5019199;28;20423;-79
2022/01/15 07:04:49;;;;;;;3.20;3.00;;;18.10;37.60;;;;;;5020855;28;20227;-78
2022/01/15 07:07:14;;;;;;;3.27;3.07;;;18.10;37.60;;;;;;5019599;28;20229;-77
2022/01/15 07:09:40;;;;;;;3.57;3.37;;;18.10;37.60;;;;;;5020265;28;20234;-78
2022/01/15 07:12:06;;;;;;;3.20;3.00;;;18.10;37.60;;;;;;5018441;28;20697;-77
2022/01/15 07:14:32;;;;;;;3.90;3.60;;;18.10;37.60;;;;;;5013562;28;20241;-76
2022/01/15 07:16:58;;;;;;;3.40;3.10;;;18.10;37.60;;;;;;5020728;28;20420;-83
2022/01/15 07:19:24;;;;;;;3.00;2.80;;;18.10;37.60;;;;;;5054124;28;20459;-80
2022/01/15 07:21:50;;;;;;;3.23;3.03;;;18.10;37.60;;;;;;5021814;28;20301;-78
2022/01/15 07:24:16;;;;;;;3.20;3.00;;;18.10;37.60;;;;;;5024778;28;20685;-79
2022/01/15 07:26:43;;;;;;;3.47;3.27;;;18.20;37.60;;;;;;5026458;28;20220;-87
2022/01/15 07:29:14;;;;;;;3.10;2.90;;;18.20;37.60;;;;;;5021067;28;20450;-86
2022/01/15 07:31:42;;;;;;;3.30;3.00;;;18.20;37.60;;;;;;5018068;28;20418;-83
2022/01/15 07:34:08;;;;;;;3.43;3.23;;;18.20;37.60;;;;;;5021795;28;20490;-75
2022/01/15 07:36:34;;;;;;;3.43;3.20;;;18.30;37.70;;;;;;5019194;28;20646;-70
2022/01/15 07:39:00;;;;;;;3.70;3.50;;;18.30;37.70;;;;;;5025911;28;20998;-69
2022/01/15 07:41:25;;;;;;;2.90;2.70;;;18.30;37.70;;;;;;5025756;28;20548;-69
2022/01/15 07:43:51;;;;;;;3.27;3.07;;;18.30;37.70;;;;;;5052723;28;20438;-77
2022/01/15 07:46:16;;;;;;;3.50;3.20;;;18.30;37.70;;;;;;5020951;28;20696;-73
2022/01/15 07:48:42;;;;;;;2.90;2.70;;;18.30;37.70;;;;;;5021171;28;20250;-75
2022/01/15 07:51:08;;;;;;;2.77;2.53;;;18.30;37.70;;;;;;5020401;28;20220;-74
2022/01/15 07:53:34;;;;;;;3.30;3.10;;;18.30;37.70;;;;;;5024549;28;20234;-75
2022/01/15 07:55:59;;;;;;;3.10;2.90;;;18.30;37.70;;;;;;5024214;28;20231;-74
2022/01/15 07:58:25;;;;;;;3.37;3.17;;;18.30;38.50;;;;;;5025901;28;20449;-74
2022/01/15 08:00:51;;;;;;;3.37;3.17;;;18.30;37.70;;;;;;5020450;28;20616;-72
2022/01/15 08:03:16;;;;;;;3.83;3.53;;;18.30;37.70;;;;;;5022758;28;20251;-73
2022/01/15 08:05:42;;;;;;;3.37;3.17;;;18.30;37.80;;;;;;5021970;28;20223;-71
2022/01/15 08:08:08;;;;;;;3.27;3.07;;;18.30;37.70;;;;;;5021076;28;20227;-77
2022/01/15 08:10:33;;;;;;;4.00;3.63;;;18.30;37.70;;;;;;5020391;28;20782;-76
2022/01/15 08:12:59;;;;;;;3.60;3.30;;;18.30;37.70;;;;;;5018315;28;20212;-73
2022/01/15 08:15:25;;;;;;;3.60;3.30;;;18.30;37.70;;;;;;5024305;28;20640;-73
2022/01/15 08:17:51;;;;;;;3.50;3.23;;;18.20;37.60;;;;;;5019295;28;20580;-72
2022/01/15 08:20:18;;;;;;;3.13;2.93;;;18.20;37.60;;;;;;5020581;28;20524;-74
2022/01/15 08:22:45;;;;;;;3.60;3.40;;;18.20;37.60;;;;;;5020353;28;20219;-73
2022/01/15 08:25:18;;;;;;;3.20;3.00;;;18.20;37.60;;;;;;5020716;28;20522;-72
2022/01/15 08:27:45;;;;;;;3.40;3.20;;;18.20;37.60;;;;;;5024366;28;20431;-72
2022/01/15 08:30:10;;;;;;;3.50;3.30;;;18.20;37.60;;;;;;5027174;28;20445;-71
2022/01/15 08:32:36;;;;;;;3.50;3.30;;;18.20;37.60;;;;;;5021568;28;20428;-74
2022/01/15 08:35:02;;;;;;;3.57;3.37;;;18.20;37.60;;;;;;5022404;28;20710;-73
2022/01/15 08:37:28;;;;;;;3.27;3.07;;;18.20;37.60;;;;;;5053610;28;20231;-73
2022/01/15 08:39:54;;;;;;;3.67;3.47;;;18.20;37.60;;;;;;5022123;28;20426;-72
2022/01/15 08:42:19;;;;;;;3.50;2.90;;;18.20;37.60;;;;;;5018543;28;20310;-71
2022/01/15 08:44:45;;;;;;;4.03;3.40;;;18.20;37.60;;;;;;5022223;28;20222;-74
2022/01/15 08:47:11;;;;;;;4.90;3.63;;;18.20;37.60;;;;;;5025338;28;20235;-73
2022/01/15 08:49:38;;;;;;;3.57;3.33;;;18.20;37.60;;;;;;5018865;28;20772;-70
2022/01/15 08:52:04;;;;;;;3.30;3.10;;;18.20;37.60;;;;;;5018405;28;20538;-72
2022/01/15 08:54:31;;;;;;;4.43;3.47;;;18.20;37.60;;;;;;5022246;28;20444;-72
2022/01/15 08:56:56;;;;;;;3.27;3.07;;;18.20;37.60;;;;;;5024130;28;20435;-75
2022/01/15 08:59:23;;;;;;;3.77;3.23;;;18.20;37.60;;;;;;5020641;28;20424;-74
2022/01/15 09:01:49;;;;;;;3.23;2.93;;;18.20;37.60;;;;;;5021624;28;20227;-72
2022/01/15 09:04:15;;;;;;;3.23;3.03;;;18.20;37.60;;;;;;5023080;28;20473;-72
2022/01/15 09:06:43;;;;;;;3.33;3.13;;;18.20;37.60;;;;;;5022443;28;20435;-72
2022/01/15 09:09:09;;;;;;;3.83;3.50;;;18.20;37.60;;;;;;5021580;28;20281;-72
2022/01/15 09:11:34;;;;;;;6.23;3.20;;;18.20;37.60;;;;;;5016535;28;20432;-74
2022/01/15 09:14:00;;;;;;;3.00;2.80;;;18.20;37.60;;;;;;5018274;28;20250;-74
2022/01/15 09:16:25;;;;;;;4.03;3.63;;;18.20;37.60;;;;;;5024944;28;20227;-75
2022/01/15 09:18:51;;;;;;;3.47;3.17;;;18.20;37.60;;;;;;5021144;28;20284;-78
2022/01/15 09:21:17;;;;;;;3.57;3.27;;;18.20;37.60;;;;;;5022417;28;20562;-72
2022/01/15 09:23:43;;;;;;;3.53;3.23;;;18.20;37.60;;;;;;5019343;28;20251;-73
2022/01/15 09:26:19;;;;;;;3.40;3.03;;;18.20;37.60;;;;;;5020033;28;20496;-73
2022/01/15 09:31:30;;;;;;;3.20;3.00;;;18.20;37.60;;;;;;5018925;28;20514;-73
2022/01/15 09:33:56;;;;;;;5.43;3.60;;;18.20;37.60;;;;;;5020028;28;20507;-74
2022/01/15 09:36:23;;;;;;;4.67;3.43;;;18.20;37.60;;;;;;5025293;28;20559;-73
2022/01/15 09:38:48;;;;;;;3.80;3.53;;;18.20;37.60;;;;;;5018513;28;20534;-73
2022/01/15 09:41:15;;;;;;;7.70;6.57;;;18.20;37.60;;;;;;5018450;28;20690;-72
2022/01/15 09:43:42;;;;;;;8.03;6.20;;;18.20;37.60;;;;;;5018767;28;20231;-75
2022/01/15 09:46:09;;;;;;;6.83;6.23;;;18.20;37.60;;;;;;5019646;28;20521;-74
2022/01/15 09:48:38;;;;;;;6.40;5.90;;;18.20;37.60;;;;;;5016907;28;20450;-74
2022/01/15 09:51:04;;;;;;;3.90;3.30;;;18.30;37.20;;;;;;5023466;28;20476;-75
2022/01/15 09:53:33;;;;;;;4.27;3.90;;;18.30;37.10;;;;;;5018602;28;20542;-72
2022/01/15 09:55:59;;;;;;;3.90;3.50;;;18.30;37.20;;;;;;5017223;28;20489;-80
2022/01/15 09:58:25;;;;;;;3.40;3.10;;;18.30;37.30;;;;;;5016882;28;20441;-74
2022/01/15 10:00:51;;;;;;;3.20;2.90;;;18.30;37.60;;;;;;5018846;28;20449;-78
2022/01/15 10:03:17;;;;;;;3.83;3.47;;;18.30;37.80;;;;;;5019726;28;20678;-78
2022/01/15 10:05:43;;;;;;;4.43;3.40;;;18.30;37.70;;;;;;5017428;28;20695;-76
2022/01/15 10:08:12;;;;;;;4.37;4.00;;;18.30;37.70;;;;;;5020220;28;20421;-71
2022/01/15 10:10:46;;;;;;;4.30;2.97;;;18.30;37.70;;;;;;5018725;28;20433;-79
2022/01/15 10:13:16;;;;;;;3.20;2.90;;;18.30;37.70;;;;;;5017177;28;20490;-77
2022/01/15 10:15:48;;;;;;;6.90;3.47;;;18.30;37.70;;;;;;5016326;28;20911;-74
2022/01/15 10:18:21;;;;;;;3.20;3.00;;;18.40;37.80;;;;;;5050031;28;20473;-74
2022/01/15 10:20:46;;;;;;;3.10;2.80;;;18.40;37.80;;;;;;5017330;28;20455;-74
2022/01/15 10:23:17;;;;;;;3.60;3.07;;;18.40;37.90;;;;;;5017056;28;20445;-73
2022/01/15 10:25:43;;;;;;;2.93;2.73;;;18.40;37.90;;;;;;5018049;28;20235;-73
2022/01/15 10:28:09;;;;;;;4.60;3.00;;;18.40;37.80;;;;;;5020906;28;20457;-73
2022/01/15 10:30:36;;;;;;;2.73;2.53;;;18.40;37.80;;;;;;5017632;28;20530;-73
2022/01/15 10:33:08;;;;;;;2.97;2.77;;;18.40;37.80;;;;;;5016785;28;20467;-72
2022/01/15 10:35:42;;;;;;;3.40;3.20;;;18.40;37.80;;;;;;5019225;28;20435;-73
2022/01/15 10:38:16;;;;;;;3.07;2.87;;;18.40;37.80;;;;;;5018987;28;20442;-73
2022/01/15 10:40:48;;;;;;;4.73;3.50;;;18.40;37.80;;;;;;5023717;28;20462;-85
2022/01/15 10:43:16;;;;;;;2.97;2.70;;;18.40;37.80;;;;;;5023047;28;20431;-81
2022/01/15 10:45:50;;;;;;;2.77;2.57;;;18.40;37.80;;;;;;5009169;28;20862;-77
2022/01/15 10:48:33;;;;;;;3.30;3.10;;;18.40;37.80;;;;;;5015010;28;20445;-75
2022/01/15 10:51:05;;;;;;;3.10;2.80;;;18.40;37.80;;;;;;5038119;28;20452;-75
2022/01/15 10:53:44;;;;;;;3.20;3.00;;;18.40;37.80;;;;;;5006839;28;20936;-81
2022/01/15 10:56:11;;;;;;;2.63;2.53;;;18.40;37.80;;;;;;5042957;28;20426;-76
2022/01/15 10:58:37;;;;;;;2.77;2.57;;;18.40;37.90;;;;;;5037988;28;20415;-78
2022/01/15 11:01:04;;;;;;;2.87;2.67;;;18.40;37.80;;;;;;5042090;28;20462;-79
2022/01/15 11:03:44;;;;;;;3.00;2.80;;;18.40;37.80;;;;;;5043627;28;20459;-75
2022/01/15 11:06:10;;;;;;;3.33;3.00;;;18.40;37.80;;;;;;5044277;28;20439;-73
2022/01/15 11:08:37;;;;;;;4.50;3.10;;;18.40;37.80;;;;;;5041633;28;20498;-74
2022/01/15 11:11:06;;;;;;;3.27;2.77;;;18.40;37.80;;;;;;5046639;28;20949;-75
2022/01/15 11:13:41;;;;;;;4.07;2.77;;;18.40;37.80;;;;;;5044528;28;20472;-75
2022/01/15 11:16:14;;;;;;;6.53;2.70;;;18.40;37.80;;;;;;5044656;28;20897;-76
2022/01/15 11:18:43;;;;;;;7.40;3.17;;;18.40;37.80;;;;;;5039832;28;20419;-76
2022/01/15 11:21:15;;;;;;;3.93;2.97;;;18.40;37.80;;;;;;5039755;28;20445;-75
2022/01/15 11:23:42;;;;;;;4.70;2.50;;;18.40;37.80;;;;;;5042595;28;20463;-74
2022/01/15 11:26:12;;;;;;;5.27;2.50;;;18.40;37.80;;;;;;5044171;28;20458;-73
2022/01/15 11:28:39;;;;;;;3.10;2.90;;;18.40;37.80;;;;;;5044119;28;20853;-75
2022/01/15 11:31:13;;;;;;;2.70;2.50;;;18.40;37.80;;;;;;5040701;28;20435;-79
2022/01/15 11:33:45;;;;;;;3.13;2.83;;;18.40;37.80;;;;;;5041024;28;20463;-76
2022/01/15 11:36:40;;;;;;;5.37;2.87;;;18.40;37.80;;;;;;5040588;28;20418;-74
2022/01/15 11:39:14;;;;;;;3.00;2.80;;;18.40;37.80;;;;;;5038021;28;20427;-74
2022/01/15 11:41:42;;;;;;;2.73;2.40;;;18.50;37.90;;;;;;5037654;28;20473;-75
2022/01/15 11:44:18;;;;;;;3.03;2.53;;;18.40;37.80;;;;;;5047781;28;20431;-73
2022/01/15 11:46:50;;;;;;;4.70;2.87;;;18.40;37.80;;;;;;5042807;28;20809;-74
2022/01/15 11:49:30;;;;;;;2.50;2.30;;;18.50;37.90;;;;;;5040449;28;20426;-73
2022/01/15 11:52:14;;;;;;;3.50;3.30;;;18.50;37.90;;;;;;5028985;28;20434;-74
2022/01/15 11:54:49;;;;;;;2.80;2.60;;;18.50;37.90;;;;;;5038940;28;20912;-74
2022/01/15 11:57:33;;;;;;;3.70;2.20;;;18.40;37.80;;;;;;5043148;28;20827;-74
2022/01/15 12:00:04;;;;;;;2.87;2.67;;;18.40;37.80;;;;;;5042173;28;20831;-74
2022/01/15 12:02:31;;;;;;;2.43;2.23;;;18.50;37.90;;;;;;5041196;28;20758;-73
2022/01/15 12:05:15;;;;;;;2.87;2.57;;;18.50;37.90;;;;;;5039352;28;20427;-73
2022/01/15 12:07:41;;;;;;;2.43;2.23;;;18.50;37.90;;;;;;5046357;28;20436;-74
2022/01/15 12:10:12;;;;;;;3.13;2.80;;;18.40;37.80;;;;;;5044686;28;20469;-74
2022/01/15 12:12:49;;;;;;;8.53;3.00;;;18.50;37.90;;;;;;5044081;28;20792;-73
2022/01/15 12:15:19;;;;;;;6.90;2.67;;;18.50;38.60;;;;;;5044591;28;20804;-74
2022/01/15 12:17:47;;;;;;;6.20;3.20;;;18.50;37.90;;;;;;5042882;28;20423;-76
2022/01/15 12:20:20;;;;;;;2.93;2.73;;;18.50;37.90;;;;;;5044852;28;20948;-75
2022/01/15 12:22:53;;;;;;;3.40;2.57;;;18.50;37.90;;;;;;5040993;28;20433;-73
2022/01/15 12:25:19;;;;;;;3.53;2.63;;;18.50;37.90;;;;;;5040223;28;20431;-78
2022/01/15 12:28:09;;;;;;;3.87;3.03;;;18.50;37.90;;;;;;5043415;28;20445;-76
2022/01/15 12:30:40;;;;;;;2.63;2.43;;;18.60;38.00;;;;;;5040724;28;20223;-75
2022/01/15 12:33:13;;;;;;;2.93;2.40;;;18.60;38.00;;;;;;5040619;28;20452;-75
2022/01/15 12:35:41;;;;;;;2.67;2.57;;;18.60;38.00;;;;;;5042511;28;20425;-75
2022/01/15 12:38:08;;;;;;;3.23;3.03;;;18.60;38.00;;;;;;5042902;28;20466;-76
2022/01/15 12:40:40;;;;;;;3.17;2.87;;;18.50;37.90;;;;;;5037074;28;20534;-75
2022/01/15 12:43:10;;;;;;;2.70;2.60;;;18.60;38.00;;;;;;5041760;28;20459;-76
2022/01/15 12:45:39;;;;;;;2.70;2.60;;;18.50;37.90;;;;;;5042261;28;20474;-76
2022/01/15 12:48:09;;;;;;;3.10;2.90;;;18.60;38.00;;;;;;5038719;28;20586;-74
2022/01/15 12:51:04;;;;;;;2.83;2.40;;;18.60;38.00;;;;;;5041772;28;21021;-76
2022/01/15 12:53:35;;;;;;;3.07;2.87;;;18.60;38.00;;;;;;5041479;28;20446;-79
2022/01/15 12:56:10;;;;;;;3.00;2.70;;;18.50;37.90;;;;;;5043574;28;20792;-78
2022/01/15 12:58:36;;;;;;;3.30;3.07;;;18.50;37.90;;;;;;5036916;28;20899;-79
2022/01/15 13:01:03;;;;;;;2.77;2.67;;;18.50;37.90;;;;;;5041188;28;20473;-77
2022/01/15 13:03:29;;;;;;;2.67;2.47;;;18.60;38.00;;;;;;5045370;28;20460;-78
2022/01/15 13:06:01;;;;;;;2.43;2.33;;;18.50;37.90;;;;;;5040616;28;20411;-78
2022/01/15 13:08:28;;;;;;;2.30;2.20;;;18.50;37.90;;;;;;5042790;28;20435;-77